createdAt,value
2023-03-06T00:01:00.874Z,65.84
2023-03-06T00:03:29.387Z,65.75
2023-03-06T00:05:58.358Z,65.67
2023-03-06T00:08:27.959Z,65.65
2023-03-06T00:10:56.987Z,65.36
2023-03-06T00:13:26.659Z,65.35
2023-03-06T00:15:58.214Z,65.23
2023-03-06T00:18:27.853Z,65.31
2023-03-06T00:20:56.467Z,65.14
2023-03-06T00:23:25.445Z,65.15
2023-03-06T00:25:54.053Z,65.13
2023-03-06T00:28:22.566Z,65.14
2023-03-06T00:30:51.058Z,65.17
2023-03-06T00:33:19.418Z,65.20
2023-03-06T00:35:48.592Z,65.21
2023-03-06T00:38:17.268Z,65.00
2023-03-06T00:40:47.211Z,65.16
2023-03-06T00:43:17.423Z,65.06
2023-03-06T00:45:45.815Z,65.19
2023-03-06T00:48:14.880Z,65.07
2023-03-06T00:50:43.461Z,64.99
2023-03-06T00:53:11.988Z,64.99
2023-03-06T00:55:44.149Z,65.04
2023-03-06T00:58:13.265Z,65.23
2023-03-06T01:00:42.420Z,65.16
2023-03-06T01:03:12.308Z,65.17
2023-03-06T01:05:40.652Z,65.14
2023-03-06T01:08:10.129Z,65.25
2023-03-06T01:10:40.689Z,65.28
2023-03-06T01:13:09.640Z,65.46
2023-03-06T01:15:38.558Z,65.34
2023-03-06T01:18:07.103Z,65.41
2023-03-06T01:20:35.515Z,65.52
2023-03-06T01:23:04.024Z,65.45
2023-03-06T01:25:32.661Z,65.44
2023-03-06T01:28:01.897Z,65.32
2023-03-06T01:30:30.575Z,65.27
2023-03-06T01:32:59.926Z,65.31
2023-03-06T01:35:28.462Z,65.05
2023-03-06T01:37:57.428Z,65.15
2023-03-06T01:40:26.539Z,65.01
2023-03-06T01:42:54.683Z,65.13
2023-03-06T01:45:23.474Z,65.14
2023-03-06T01:47:52.692Z,65.30
2023-03-06T01:50:20.751Z,65.19
2023-03-06T01:52:54.324Z,65.47
2023-03-06T01:55:25.738Z,65.25
2023-03-06T01:57:59.520Z,65.10
2023-03-06T02:00:29.458Z,64.88
2023-03-06T02:03:06.597Z,64.88
2023-03-06T02:05:35.885Z,64.72
2023-03-06T02:08:04.616Z,64.78
2023-03-06T02:10:33.558Z,64.67
2023-03-06T02:13:02.645Z,64.56
2023-03-06T02:15:31.112Z,64.50
2023-03-06T02:18:00.393Z,64.03
2023-03-06T02:20:31.415Z,64.08
2023-03-06T02:23:09.102Z,64.03
2023-03-06T02:25:40.645Z,63.88
2023-03-06T02:28:10.004Z,63.89
2023-03-06T02:30:38.465Z,63.48
2023-03-06T02:33:07.040Z,63.59
2023-03-06T02:35:36.939Z,63.66
2023-03-06T02:38:10.682Z,63.22
2023-03-06T02:40:39.499Z,63.06
2023-03-06T02:43:08.847Z,63.14
2023-03-06T02:45:49.298Z,63.03
2023-03-06T02:48:19.453Z,63.35
2023-03-06T02:50:48.290Z,63.06
2023-03-06T02:53:18.140Z,63.10
2023-03-06T02:55:47.291Z,62.89
2023-03-06T02:58:16.145Z,63.23
2023-03-06T03:00:45.879Z,63.12
2023-03-06T03:03:14.080Z,63.13
2023-03-06T03:05:42.594Z,63.04
2023-03-06T03:08:12.243Z,63.10
2023-03-06T03:10:40.790Z,63.14
2023-03-06T03:13:09.567Z,62.81
2023-03-06T03:15:38.774Z,62.81
2023-03-06T03:18:07.446Z,62.64
2023-03-06T03:20:36.517Z,62.42
2023-03-06T03:23:06.134Z,62.53
2023-03-06T03:25:34.976Z,62.23
2023-03-06T03:28:05.130Z,62.15
2023-03-06T03:30:34.433Z,61.95
2023-03-06T03:33:03.852Z,61.87
2023-03-06T03:35:33.138Z,61.83
2023-03-06T03:38:02.662Z,61.94
2023-03-06T03:40:31.045Z,62.10
2023-03-06T03:42:59.754Z,62.22
2023-03-06T03:45:28.945Z,62.32
2023-03-06T03:47:57.131Z,62.17
2023-03-06T03:50:26.277Z,61.81
2023-03-06T03:52:54.290Z,61.66
2023-03-06T03:55:23.704Z,61.82
2023-03-06T03:57:52.331Z,61.67
2023-03-06T04:00:21.877Z,61.71
2023-03-06T04:02:50.339Z,61.65
2023-03-06T04:05:19.675Z,61.66
2023-03-06T04:07:49.353Z,61.68
2023-03-06T04:10:17.473Z,61.42
2023-03-06T04:12:46.399Z,61.55
2023-03-06T04:15:16.276Z,61.42
2023-03-06T04:17:45.188Z,61.33
2023-03-06T04:20:13.752Z,61.31
2023-03-06T04:22:42.099Z,61.24
2023-03-06T04:25:10.606Z,61.36
2023-03-06T04:27:38.668Z,61.39
2023-03-06T04:30:08.399Z,61.60
2023-03-06T04:32:36.987Z,61.40
2023-03-06T04:35:05.829Z,61.51
2023-03-06T04:37:34.572Z,61.72
2023-03-06T04:40:03.591Z,61.61
2023-03-06T04:42:31.881Z,61.43
2023-03-06T04:45:00.374Z,61.39
2023-03-06T04:47:29.195Z,61.31
2023-03-06T04:49:58.259Z,61.27
2023-03-06T04:52:26.410Z,61.27
2023-03-06T04:54:54.416Z,61.38
2023-03-06T04:57:23.823Z,61.32
2023-03-06T04:59:53.105Z,61.54
2023-03-06T05:02:21.652Z,61.32
2023-03-06T05:04:51.772Z,61.31
2023-03-06T05:07:21.318Z,61.11
2023-03-06T05:09:50.065Z,61.17
2023-03-06T05:12:19.797Z,61.00
2023-03-06T05:14:49.617Z,61.15
2023-03-06T05:17:18.033Z,61.10
2023-03-06T05:19:47.206Z,61.11
2023-03-06T05:22:15.414Z,61.08
2023-03-06T05:24:44.429Z,60.93
2023-03-06T05:27:15.192Z,60.88
2023-03-06T05:29:45.680Z,60.77
2023-03-06T05:32:15.850Z,60.56
2023-03-06T05:34:44.315Z,60.34
2023-03-06T05:37:12.468Z,60.19
2023-03-06T05:39:41.467Z,60.18
2023-03-06T05:42:11.176Z,60.19
2023-03-06T05:44:41.579Z,60.15
2023-03-06T05:47:09.914Z,60.03
2023-03-06T05:49:40.531Z,59.83
2023-03-06T05:52:09.635Z,59.83
2023-03-06T05:54:38.830Z,59.75
2023-03-06T05:57:07.625Z,59.69
2023-03-06T05:59:38.183Z,59.65
2023-03-06T06:02:06.294Z,59.64
2023-03-06T06:04:34.817Z,59.55
2023-03-06T06:07:03.446Z,59.65
2023-03-06T06:09:31.403Z,59.55
2023-03-06T06:12:01.740Z,59.56
2023-03-06T06:14:30.533Z,59.74
2023-03-06T06:17:00.033Z,59.77
2023-03-06T06:19:29.529Z,59.89
2023-03-06T06:21:58.973Z,59.80
2023-03-06T06:24:27.888Z,59.80
2023-03-06T06:26:57.108Z,60.00
2023-03-06T06:29:27.019Z,60.07
2023-03-06T06:31:57.161Z,60.19
2023-03-06T06:34:25.940Z,60.04
2023-03-06T06:36:54.667Z,59.97
2023-03-06T06:39:23.943Z,59.79
2023-03-06T06:42:09.613Z,59.80
2023-03-06T06:44:41.840Z,59.72
2023-03-06T06:47:26.492Z,59.58
2023-03-06T06:49:56.305Z,59.43
2023-03-06T06:52:25.151Z,59.25
2023-03-06T06:54:53.199Z,59.10
2023-03-06T06:57:21.297Z,59.09
2023-03-06T06:59:52.443Z,59.24
2023-03-06T07:02:22.843Z,59.11
2023-03-06T07:05:03.071Z,58.81
2023-03-06T07:07:36.291Z,57.59
2023-03-06T07:10:05.515Z,57.05
2023-03-06T07:12:33.991Z,55.75
2023-03-06T07:15:05.534Z,54.22
2023-03-06T07:17:34.077Z,52.93
2023-03-06T07:20:03.080Z,50.77
2023-03-06T07:22:38.711Z,49.49
2023-03-06T07:25:18.508Z,48.13
2023-03-06T07:27:53.339Z,46.19
2023-03-06T07:30:23.986Z,44.33
2023-03-06T07:32:54.561Z,42.31
2023-03-06T07:35:23.616Z,39.16
2023-03-06T07:37:52.433Z,36.06
2023-03-06T07:40:21.845Z,36.05
2023-03-06T07:42:49.936Z,35.57
2023-03-06T07:45:18.710Z,34.29
2023-03-06T07:47:50.226Z,32.89
2023-03-06T07:50:20.473Z,32.44
2023-03-06T07:52:49.783Z,33.06
2023-03-06T07:55:18.098Z,31.07
2023-03-06T07:57:46.086Z,31.66
2023-03-06T08:00:15.423Z,30.62
2023-03-06T08:02:44.175Z,29.90
2023-03-06T08:05:14.658Z,29.17
2023-03-06T08:07:44.054Z,28.42
2023-03-06T08:10:13.621Z,27.44
2023-03-06T08:12:43.125Z,27.46
2023-03-06T08:15:14.432Z,26.67
2023-03-06T08:17:43.443Z,26.28
2023-03-06T08:20:11.978Z,24.95
2023-03-06T08:22:40.955Z,23.50
2023-03-06T08:25:09.446Z,23.57
2023-03-06T08:27:37.889Z,24.13
2023-03-06T08:30:07.160Z,24.01
2023-03-06T08:32:36.233Z,23.35
2023-03-06T08:35:05.031Z,23.70
2023-03-06T08:37:34.152Z,23.34
2023-03-06T08:40:03.375Z,22.02
2023-03-06T08:42:32.162Z,22.84
2023-03-06T08:45:00.656Z,22.86
2023-03-06T08:47:28.767Z,23.25
2023-03-06T08:49:58.826Z,23.43
2023-03-06T08:52:28.867Z,23.01
2023-03-06T08:54:59.841Z,22.35
2023-03-06T08:57:28.176Z,21.90
2023-03-06T08:59:56.710Z,22.00
2023-03-06T09:02:24.914Z,21.52
2023-03-06T09:04:53.685Z,21.29
2023-03-06T09:07:21.918Z,20.60
2023-03-06T09:09:49.864Z,20.72
2023-03-06T09:12:17.881Z,20.77
2023-03-06T09:14:46.182Z,20.66
2023-03-06T09:17:14.087Z,20.72
2023-03-06T09:19:42.255Z,21.05
2023-03-06T09:22:10.901Z,20.80
2023-03-06T09:24:38.857Z,21.20
2023-03-06T09:27:07.239Z,21.01
2023-03-06T09:29:35.301Z,21.32
2023-03-06T09:32:03.995Z,21.61
2023-03-06T09:34:32.023Z,22.18
2023-03-06T09:37:02.418Z,22.20
2023-03-06T09:39:30.913Z,22.48
2023-03-06T09:41:59.268Z,22.50
2023-03-06T09:44:32.637Z,22.34
2023-03-06T09:47:29.884Z,22.35
2023-03-06T09:50:11.477Z,22.30
2023-03-06T09:52:55.360Z,22.00
2023-03-06T09:55:29.045Z,21.64
2023-03-06T09:58:03.834Z,21.29
2023-03-06T10:00:41.366Z,20.79
2023-03-06T10:03:16.060Z,20.57
2023-03-06T10:05:50.099Z,20.13
2023-03-06T10:08:28.793Z,19.86
2023-03-06T10:11:01.315Z,19.37
2023-03-06T10:13:43.644Z,19.16
2023-03-06T10:16:12.985Z,18.71
2023-03-06T10:18:41.032Z,18.59
2023-03-06T10:21:41.703Z,18.70
2023-03-06T10:24:23.546Z,18.93
2023-03-06T10:27:12.295Z,19.39
2023-03-06T10:30:02.015Z,20.05
2023-03-06T10:32:46.243Z,20.24
2023-03-06T10:35:20.163Z,20.15
2023-03-06T10:37:48.607Z,19.71
2023-03-06T10:40:19.429Z,19.72
2023-03-06T10:42:49.547Z,19.40
2023-03-06T10:45:21.076Z,19.79
2023-03-06T10:47:49.579Z,19.83
2023-03-06T10:50:17.542Z,19.30
2023-03-06T10:52:46.008Z,18.77
2023-03-06T10:55:25.477Z,18.12
2023-03-06T10:57:53.625Z,18.07
2023-03-06T11:00:29.975Z,17.37
2023-03-06T11:03:11.023Z,17.50
2023-03-06T11:05:39.568Z,17.33
2023-03-06T11:08:19.874Z,17.12
2023-03-06T11:11:02.643Z,17.38
2023-03-06T11:13:33.932Z,17.18
2023-03-06T11:16:04.951Z,17.31
2023-03-06T11:18:36.778Z,17.34
2023-03-06T11:21:06.729Z,17.61
2023-03-06T11:23:41.646Z,17.08
2023-03-06T11:26:24.574Z,16.98
2023-03-06T11:29:11.956Z,16.76
2023-03-06T11:31:47.137Z,16.88
2023-03-06T11:34:25.810Z,16.60
2023-03-06T11:37:02.517Z,16.63
2023-03-06T11:39:51.814Z,16.62
2023-03-06T11:42:32.728Z,16.49
2023-03-06T11:45:02.879Z,16.64
2023-03-06T11:47:46.379Z,17.04
2023-03-06T11:50:20.553Z,17.75
2023-03-06T11:52:53.660Z,18.34
2023-03-06T11:55:28.595Z,18.61
2023-03-06T11:58:04.619Z,18.96
2023-03-06T12:00:38.937Z,19.00
2023-03-06T12:03:25.842Z,18.94
2023-03-06T12:06:06.110Z,19.02
2023-03-06T12:12:03.672Z,18.98
2023-03-06T12:14:34.585Z,19.59
2023-03-06T12:17:12.087Z,19.47
2023-03-06T12:19:44.021Z,19.57
2023-03-06T12:22:31.952Z,19.83
2023-03-06T12:25:27.278Z,19.58
2023-03-06T12:28:02.605Z,19.60
2023-03-06T12:30:42.779Z,19.76
2023-03-06T12:33:10.876Z,20.14
2023-03-06T12:35:47.961Z,20.09
2023-03-06T12:38:35.125Z,20.34
2023-03-06T12:41:22.289Z,20.82
2023-03-06T12:43:50.539Z,21.15
2023-03-06T12:46:24.553Z,21.26
2023-03-06T12:49:02.010Z,21.35
2023-03-06T12:51:31.649Z,21.52
2023-03-06T12:54:02.499Z,21.75
2023-03-06T12:56:31.352Z,21.62
2023-03-06T12:59:00.237Z,21.62
2023-03-06T13:01:37.918Z,21.45
2023-03-06T13:04:27.764Z,21.83
2023-03-06T13:07:02.127Z,21.85
2023-03-06T13:09:40.575Z,21.75
2023-03-06T13:12:36.361Z,21.97
2023-03-06T13:15:24.526Z,22.13
2023-03-06T13:17:53.739Z,22.23
2023-03-06T13:20:40.686Z,22.13
2023-03-06T13:23:28.174Z,22.31
2023-03-06T13:25:57.315Z,22.41
2023-03-06T13:28:44.097Z,22.22
2023-03-06T13:31:26.630Z,22.14
2023-03-06T13:34:03.222Z,22.21
2023-03-06T13:36:33.347Z,22.27
2023-03-06T13:39:01.404Z,22.37
2023-03-06T13:41:35.691Z,22.49
2023-03-06T13:44:25.613Z,22.50
2023-03-06T13:47:06.124Z,22.77
2023-03-06T13:49:35.298Z,22.71
2023-03-06T13:52:07.082Z,22.83
2023-03-06T13:54:39.546Z,22.86
2023-03-06T13:57:23.301Z,23.16
2023-03-06T14:00:03.100Z,23.10
2023-03-06T14:02:53.515Z,23.29
2023-03-06T14:05:24.017Z,23.32
2023-03-06T14:08:10.401Z,23.58
2023-03-06T14:10:39.860Z,23.69
2023-03-06T14:13:19.793Z,23.73
2023-03-06T14:15:52.970Z,23.63
2023-03-06T14:18:23.724Z,23.64
2023-03-06T14:21:07.054Z,23.97
2023-03-06T14:23:40.196Z,23.98
2023-03-06T14:26:12.580Z,24.01
2023-03-06T14:28:42.075Z,23.99
2023-03-06T14:31:19.475Z,23.66
2023-03-06T14:33:51.183Z,23.75
2023-03-06T14:36:21.093Z,23.91
2023-03-06T14:38:51.830Z,23.99
2023-03-06T14:41:31.121Z,24.00
2023-03-06T14:44:17.516Z,24.32
2023-03-06T14:46:47.543Z,24.21
2023-03-06T14:49:16.301Z,24.10
2023-03-06T14:51:45.894Z,24.04
2023-03-06T14:54:17.250Z,24.12
2023-03-06T14:56:47.758Z,24.32
2023-03-06T14:59:21.720Z,24.21
2023-03-06T15:01:50.775Z,24.21
2023-03-06T15:04:40.591Z,24.26
2023-03-06T15:07:21.393Z,24.04
2023-03-06T15:09:51.669Z,24.17
2023-03-06T15:12:20.080Z,24.12
2023-03-06T15:15:18.584Z,24.43
2023-03-06T15:17:48.117Z,24.40
2023-03-06T15:20:35.551Z,24.22
2023-03-06T15:23:13.530Z,24.22
2023-03-06T15:25:49.662Z,24.30
2023-03-06T15:28:35.674Z,24.17
2023-03-06T15:31:21.204Z,24.12
2023-03-06T15:34:11.811Z,24.10
2023-03-06T15:36:47.581Z,24.04
2023-03-06T15:39:51.219Z,24.07
2023-03-06T15:42:25.935Z,23.83
2023-03-06T15:44:55.290Z,23.72
2023-03-06T15:47:24.316Z,23.84
2023-03-06T15:49:53.830Z,23.63
2023-03-06T15:52:23.569Z,23.74
2023-03-06T15:54:52.552Z,23.71
2023-03-06T15:57:26.291Z,23.54
2023-03-06T15:59:55.565Z,23.65
2023-03-06T16:02:24.760Z,23.64
2023-03-06T16:04:53.612Z,23.83
2023-03-06T16:07:21.726Z,23.97
2023-03-06T16:09:50.038Z,24.10
2023-03-06T16:12:20.154Z,24.09
2023-03-06T16:14:48.810Z,24.39
2023-03-06T16:17:17.991Z,24.63
2023-03-06T16:19:46.554Z,24.69
2023-03-06T16:22:17.058Z,24.73
2023-03-06T16:24:44.931Z,24.93
2023-03-06T16:27:18.318Z,24.91
2023-03-06T16:29:46.476Z,24.78
2023-03-06T16:32:14.504Z,24.82
2023-03-06T16:34:43.046Z,24.89
2023-03-06T16:37:12.818Z,25.01
2023-03-06T16:39:42.824Z,25.30
2023-03-06T16:42:11.527Z,25.31
2023-03-06T16:44:39.683Z,25.44
2023-03-06T16:47:10.880Z,25.79
2023-03-06T16:49:40.014Z,25.89
2023-03-06T16:52:11.507Z,25.95
2023-03-06T16:54:44.569Z,25.99
2023-03-06T16:57:15.828Z,25.85
2023-03-06T16:59:43.846Z,25.64
2023-03-06T17:02:12.481Z,25.74
2023-03-06T17:04:40.474Z,25.72
2023-03-06T17:07:08.898Z,25.79
2023-03-06T17:09:37.476Z,25.76
2023-03-06T17:12:06.155Z,25.86
2023-03-06T17:14:34.327Z,26.06
2023-03-06T17:17:02.375Z,26.28
2023-03-06T17:19:30.678Z,26.46
2023-03-06T17:21:58.702Z,26.65
2023-03-06T17:24:26.896Z,26.73
2023-03-06T17:26:55.226Z,26.85
2023-03-06T17:29:23.561Z,26.92
2023-03-06T17:31:51.390Z,27.06
2023-03-06T17:34:19.540Z,27.14
2023-03-06T17:36:47.431Z,27.33
2023-03-06T17:39:17.494Z,27.37
2023-03-06T17:41:46.548Z,27.49
2023-03-06T17:44:15.865Z,27.74
2023-03-06T17:46:44.200Z,27.94
2023-03-06T17:49:12.179Z,28.08
2023-03-06T17:51:41.239Z,28.38
2023-03-06T17:54:09.162Z,28.37
2023-03-06T17:56:37.529Z,28.55
2023-03-06T17:59:05.562Z,28.63
2023-03-06T18:01:33.628Z,28.75
2023-03-06T18:04:01.926Z,28.91
2023-03-06T18:06:30.935Z,29.10
2023-03-06T18:09:00.800Z,29.21
2023-03-06T18:11:28.943Z,29.26
2023-03-06T18:13:57.068Z,29.50
2023-03-06T18:16:26.359Z,29.59
2023-03-06T18:18:55.528Z,29.84
2023-03-06T18:21:24.070Z,29.85
2023-03-06T18:23:52.328Z,30.35
2023-03-06T18:26:24.912Z,33.28
2023-03-06T18:28:56.274Z,36.19
2023-03-06T18:31:25.922Z,37.34
2023-03-06T18:33:56.977Z,38.59
2023-03-06T18:36:26.165Z,39.75
2023-03-06T18:38:54.752Z,41.35
2023-03-06T18:41:24.225Z,42.59
2023-03-06T18:43:56.589Z,43.93
2023-03-06T18:46:25.374Z,44.76
2023-03-06T18:48:54.943Z,45.53
2023-03-06T18:51:23.007Z,46.64
2023-03-06T18:53:50.996Z,47.31
2023-03-06T18:56:21.907Z,47.89
2023-03-06T18:58:49.928Z,47.54
2023-03-06T19:01:18.498Z,47.94
2023-03-06T19:03:46.757Z,48.64
2023-03-06T19:06:16.126Z,49.21
2023-03-06T19:08:44.743Z,49.63
2023-03-06T19:11:14.451Z,49.99
2023-03-06T19:13:43.981Z,50.22
2023-03-06T19:16:19.811Z,50.41
2023-03-06T19:18:47.792Z,50.39
2023-03-06T19:21:19.546Z,50.70
2023-03-06T19:23:48.224Z,50.55
2023-03-06T19:26:16.199Z,50.64
2023-03-06T19:28:45.117Z,50.84
2023-03-06T19:31:19.356Z,50.85
2023-03-06T19:33:49.397Z,50.54
2023-03-06T19:36:18.104Z,50.69
2023-03-06T19:38:46.548Z,50.79
2023-03-06T19:41:14.492Z,50.78
2023-03-06T19:43:43.661Z,51.39
2023-03-06T19:46:15.223Z,51.31
2023-03-06T19:48:43.744Z,51.19
2023-03-06T19:51:11.973Z,51.25
2023-03-06T19:53:40.014Z,51.19
2023-03-06T19:56:09.691Z,50.89
2023-03-06T19:58:37.987Z,50.51
2023-03-06T20:01:11.578Z,50.45
2023-03-06T20:03:40.752Z,50.51
2023-03-06T20:06:13.207Z,49.97
2023-03-06T20:08:42.371Z,50.17
2023-03-06T20:11:21.435Z,50.13
2023-03-06T20:13:49.384Z,50.00
2023-03-06T20:16:18.189Z,50.07
2023-03-06T20:18:46.261Z,50.23
2023-03-06T20:21:14.946Z,50.58
2023-03-06T20:23:43.286Z,50.35
2023-03-06T20:26:12.629Z,50.33
2023-03-06T20:28:41.938Z,50.16
2023-03-06T20:31:14.722Z,49.71
2023-03-06T20:33:43.342Z,49.54
2023-03-06T20:36:12.586Z,49.58
2023-03-06T20:38:41.225Z,49.46
2023-03-06T20:41:20.966Z,49.35
2023-03-06T20:43:49.104Z,48.81
2023-03-06T20:46:18.337Z,48.62
2023-03-06T20:48:47.780Z,48.44
2023-03-06T20:51:20.575Z,48.40
2023-03-06T20:53:50.191Z,48.04
2023-03-06T20:56:19.316Z,47.82
2023-03-06T20:58:47.426Z,47.78
2023-03-06T21:01:29.438Z,47.47
2023-03-06T21:03:58.364Z,47.03
2023-03-06T21:06:27.897Z,46.97
2023-03-06T21:08:56.152Z,46.73
2023-03-06T21:11:24.579Z,46.78
2023-03-06T21:13:53.213Z,46.62
2023-03-06T21:16:22.292Z,46.45
2023-03-06T21:18:50.827Z,46.81
2023-03-06T21:21:21.009Z,47.43
2023-03-06T21:23:49.312Z,47.84
2023-03-06T21:26:18.961Z,48.23
2023-03-06T21:28:47.168Z,48.14
2023-03-06T21:31:16.270Z,48.12
2023-03-06T21:33:44.925Z,47.85
2023-03-06T21:36:13.108Z,47.66
2023-03-06T21:38:41.172Z,46.73
2023-03-06T21:41:10.555Z,45.78
2023-03-06T21:43:38.912Z,45.33
2023-03-06T21:46:06.922Z,44.64
2023-03-06T21:48:35.748Z,44.51
2023-03-06T21:51:05.078Z,44.26
2023-03-06T21:53:33.088Z,44.05
2023-03-06T21:56:01.652Z,43.72
2023-03-06T21:58:30.119Z,43.59
2023-03-06T22:00:58.239Z,43.50
2023-03-06T22:03:27.020Z,43.12
2023-03-06T22:05:54.901Z,43.01
2023-03-06T22:08:22.918Z,42.81
2023-03-06T22:10:51.593Z,42.66
2023-03-06T22:13:19.616Z,42.96
2023-03-06T22:15:52.182Z,42.88
2023-03-06T22:18:21.343Z,43.09
2023-03-06T22:20:49.225Z,43.07
2023-03-06T22:23:17.611Z,43.04
2023-03-06T22:25:45.506Z,42.93
2023-03-06T22:28:13.525Z,42.72
2023-03-06T22:30:42.285Z,43.02
2023-03-06T22:33:10.632Z,42.84
2023-03-06T22:35:38.517Z,42.94
2023-03-06T22:38:06.639Z,42.89
2023-03-06T22:40:34.608Z,42.56
2023-03-06T22:43:02.558Z,42.70
2023-03-06T22:45:34.680Z,42.56
2023-03-06T22:48:10.795Z,42.78
2023-03-06T22:50:39.371Z,42.86
2023-03-06T22:53:07.281Z,42.89
2023-03-06T22:55:35.274Z,42.97
2023-03-06T22:58:03.522Z,43.15
2023-03-06T23:00:31.461Z,43.29
2023-03-06T23:02:59.537Z,43.26
2023-03-06T23:05:29.469Z,43.24
2023-03-06T23:07:57.541Z,43.27
2023-03-06T23:10:25.678Z,43.26
2023-03-06T23:12:54.133Z,43.43
2023-03-06T23:15:22.482Z,43.58
2023-03-06T23:17:51.554Z,43.46
2023-03-06T23:20:19.896Z,43.47
2023-03-06T23:22:47.883Z,43.42
2023-03-06T23:25:15.998Z,43.53
2023-03-06T23:27:44.377Z,43.69
2023-03-06T23:30:13.437Z,43.33
2023-03-06T23:32:41.537Z,43.23
2023-03-06T23:35:10.054Z,43.24
2023-03-06T23:37:38.059Z,43.21
2023-03-06T23:40:06.262Z,43.28
2023-03-06T23:42:34.424Z,43.19
2023-03-06T23:45:02.478Z,43.10
2023-03-06T23:47:31.960Z,42.95
2023-03-06T23:50:00.390Z,42.90
2023-03-06T23:52:28.355Z,42.85
2023-03-06T23:54:56.318Z,42.88
2023-03-06T23:57:25.655Z,42.90
2023-03-06T23:59:53.697Z,43.06
